Goliah — WDD5908 — position and weather

sailwx.info

Track history (hours):
 
Tides and Currents Weather Stations Pressure Air Temp Water Temp Dewpoint Dewpoint Depression Visibility Wind Speed Wind Dir Waves Ship Positions

Goliah

Owner: Crowley Marine Services, Seattle, WA. More information available from US FCC via Universal Licensing System and Coast Guard Vessel Documentation Center.

Last reported at 2017-Feb-25 13:33 UTC. Time now 2017-Feb-25 13:51 UTC.
Position N 33°44' W 118°15'.

Length 33 m; draft 4.8 m.

Type: Tug. MMSI: 366898250.

Date/timePositionNaut miles runAvg speedWind from/ knotsBaromVisibWave heightAir tempDewpointWater temp
2017-Feb-25 13:33N 33°44' W 118°15'  
2017-Feb-23 06:19N 33°44' W 118°17'1 0.1
2017-Feb-22 11:18N 33°43' W 118°16'3 0.3
2017-Feb-22 03:15N 33°45' W 118°14'0 0.6
2017-Feb-22 02:27N 33°45' W 118°14'1 0.8
2017-Feb-22 01:33N 33°45' W 118°13'0 0.3
2017-Feb-22 00:33N 33°45' W 118°13'2 1.6
2017-Feb-21 23:32N 33°44' W 118°13'3 3.6
2017-Feb-21 22:33N 33°44' W 118°17'0 0.0
2017-Feb-21 21:09N 33°44' W 118°17'2 3.3
2017-Feb-21 20:33N 33°43' W 118°15'3 1.0
2017-Feb-21 17:33N 33°44' W 118°12'3 0.6
2017-Feb-21 13:08N 33°44' W 118°15'1 1.0
2017-Feb-21 12:09N 33°43' W 118°16'2 1.3
2017-Feb-21 10:32N 33°45' W 118°17'  
2017-Feb-17 06:04N 33°45' W 118°13'2 3.7
2017-Feb-17 05:32N 33°44' W 118°11'3 2.6
2017-Feb-17 04:21N 33°46' W 118°13'1 1.1
2017-Feb-17 03:14N 33°45' W 118°13'3 4.7
2017-Feb-17 02:33N 33°44' W 118°17'2 1.6
2017-Feb-17 01:33N 33°46' W 118°16'0 0.0
2017-Feb-17 00:33N 33°46' W 118°16'2 1.5
2017-Feb-16 23:32N 33°44' W 118°17'0 0.0
2017-Feb-16 22:33N 33°44' W 118°17'0 0.0
2017-Feb-16 21:26N 33°44' W 118°17'0 0.0
2017-Feb-16 20:33N 33°44' W 118°17'0 0.0
2017-Feb-16 19:33N 33°44' W 118°17'1 0.9
2017-Feb-16 18:33N 33°45' W 118°16'3 2.6
2017-Feb-16 17:33N 33°45' W 118°13'1 0.9
2017-Feb-16 16:33N 33°46' W 118°13'2 2.4
2017-Feb-16 15:33N 33°44' W 118°12'0 0.4
2017-Feb-16 14:33N 33°44' W 118°12'1 1.4
2017-Feb-16 13:33N 33°45' W 118°13'1 0.7
2017-Feb-16 12:33N 33°44' W 118°13'3 3.3
2017-Feb-16 11:34N 33°44' W 118°17'0 0.0
2017-Feb-16 10:33N 33°44' W 118°17'0 0.0
2017-Feb-16 09:33N 33°44' W 118°17'0 0.0
2017-Feb-16 08:33N 33°44' W 118°17'0 0.0
2017-Feb-16 07:33N 33°44' W 118°17'0 0.0
2017-Feb-16 06:33N 33°44' W 118°17'0 0.0
2017-Feb-16 05:34N 33°44' W 118°17'0 0.0
2017-Feb-16 04:33N 33°44' W 118°17'0 0.0
2017-Feb-16 03:33N 33°44' W 118°17'0 0.0
2017-Feb-16 02:33N 33°44' W 118°17'0 0.0
2017-Feb-16 01:33N 33°44' W 118°17'0 0.0
2017-Feb-16 00:33N 33°44' W 118°17'0 0.0
2017-Feb-15 23:33N 33°44' W 118°17'0 0.0
2017-Feb-15 22:33N 33°44' W 118°17'0 0.0
2017-Feb-15 21:33N 33°44' W 118°17'0 0.0
2017-Feb-15 20:33N 33°44' W 118°17'0 0.1
2017-Feb-15 19:33N 33°45' W 118°17'1 0.7
2017-Feb-15 18:33N 33°45' W 118°16'4 4.4
2017-Feb-15 17:33N 33°43' W 118°12'1 1.2
2017-Feb-15 16:33N 33°44' W 118°12'0 0.2
2017-Feb-15 15:33N 33°44' W 118°12'2 2.1
2017-Feb-15 14:33N 33°45' W 118°14'1 0.8
2017-Feb-15 13:33N 33°45' W 118°13'  
Track history (hours):
 
Tides and Currents Weather Stations Pressure Air Temp Water Temp Dewpoint Dewpoint Depression Visibility Wind Speed Wind Dir Waves Ship Positions

Goliah

Owner: Crowley Marine Services, Seattle, WA. More information available from US FCC via Universal Licensing System and Coast Guard Vessel Documentation Center.

Last reported at 2017-Feb-25 13:33 UTC. Time now 2017-Feb-25 13:51 UTC.
Position N 33°44' W 118°15'.

Length 33 m; draft 4.8 m.

Type: Tug. MMSI: 366898250.

Date/timePositionNaut miles runAvg speedWind from/ knotsBaromVisibWave heightAir tempDewpointWater temp
2017-Feb-25 13:33N 33°44' W 118°15'  
2017-Feb-23 06:19N 33°44' W 118°17'1 0.1
2017-Feb-22 11:18N 33°43' W 118°16'3 0.3
2017-Feb-22 03:15N 33°45' W 118°14'0 0.6
2017-Feb-22 02:27N 33°45' W 118°14'1 0.8
2017-Feb-22 01:33N 33°45' W 118°13'0 0.3
2017-Feb-22 00:33N 33°45' W 118°13'2 1.6
2017-Feb-21 23:32N 33°44' W 118°13'3 3.6
2017-Feb-21 22:33N 33°44' W 118°17'0 0.0
2017-Feb-21 21:09N 33°44' W 118°17'2 3.3
2017-Feb-21 20:33N 33°43' W 118°15'3 1.0
2017-Feb-21 17:33N 33°44' W 118°12'3 0.6
2017-Feb-21 13:08N 33°44' W 118°15'1 1.0
2017-Feb-21 12:09N 33°43' W 118°16'2 1.3
2017-Feb-21 10:32N 33°45' W 118°17'  
2017-Feb-17 06:04N 33°45' W 118°13'2 3.7
2017-Feb-17 05:32N 33°44' W 118°11'3 2.6
2017-Feb-17 04:21N 33°46' W 118°13'1 1.1
2017-Feb-17 03:14N 33°45' W 118°13'3 4.7
2017-Feb-17 02:33N 33°44' W 118°17'2 1.6
2017-Feb-17 01:33N 33°46' W 118°16'0 0.0
2017-Feb-17 00:33N 33°46' W 118°16'2 1.5
2017-Feb-16 23:32N 33°44' W 118°17'0 0.0
2017-Feb-16 22:33N 33°44' W 118°17'0 0.0
2017-Feb-16 21:26N 33°44' W 118°17'0 0.0
2017-Feb-16 20:33N 33°44' W 118°17'0 0.0
2017-Feb-16 19:33N 33°44' W 118°17'1 0.9
2017-Feb-16 18:33N 33°45' W 118°16'3 2.6
2017-Feb-16 17:33N 33°45' W 118°13'1 0.9
2017-Feb-16 16:33N 33°46' W 118°13'2 2.4
2017-Feb-16 15:33N 33°44' W 118°12'0 0.4
2017-Feb-16 14:33N 33°44' W 118°12'1 1.4
2017-Feb-16 13:33N 33°45' W 118°13'1 0.7
2017-Feb-16 12:33N 33°44' W 118°13'3 3.3
2017-Feb-16 11:34N 33°44' W 118°17'0 0.0
2017-Feb-16 10:33N 33°44' W 118°17'0 0.0
2017-Feb-16 09:33N 33°44' W 118°17'0 0.0
2017-Feb-16 08:33N 33°44' W 118°17'0 0.0
2017-Feb-16 07:33N 33°44' W 118°17'0 0.0
2017-Feb-16 06:33N 33°44' W 118°17'0 0.0
2017-Feb-16 05:34N 33°44' W 118°17'0 0.0
2017-Feb-16 04:33N 33°44' W 118°17'0 0.0
2017-Feb-16 03:33N 33°44' W 118°17'0 0.0
2017-Feb-16 02:33N 33°44' W 118°17'0 0.0
2017-Feb-16 01:33N 33°44' W 118°17'0 0.0
2017-Feb-16 00:33N 33°44' W 118°17'0 0.0
2017-Feb-15 23:33N 33°44' W 118°17'0 0.0
2017-Feb-15 22:33N 33°44' W 118°17'0 0.0
2017-Feb-15 21:33N 33°44' W 118°17'0 0.0
2017-Feb-15 20:33N 33°44' W 118°17'0 0.1
2017-Feb-15 19:33N 33°45' W 118°17'1 0.7
2017-Feb-15 18:33N 33°45' W 118°16'4 4.4
2017-Feb-15 17:33N 33°43' W 118°12'1 1.2
2017-Feb-15 16:33N 33°44' W 118°12'0 0.2
2017-Feb-15 15:33N 33°44' W 118°12'2 2.1
2017-Feb-15 14:33N 33°45' W 118°14'1 0.8
2017-Feb-15 13:33N 33°45' W 118°13'  

Dump ship's entire track history